Bookmark and Share
Track history (hours):
 

Maersk Cameron

Last reported at 2013-Feb-15 23:08 UTC. Time now 2014-Apr-19 22:06 UTC.
Position N 37°57' E 024°37'.
Warning: this ship's position is years out of date!

Length 183 m; draft 8 m.

Type: Tanker. MMSI: 235054775.

NotesDate/timePositionNaut miles runAvg speedWind from/ knotsBaromVisibWave heightAir tempDewpointWater temp
2013-Feb-15 23:08N 37°57' E 024°37'1111.3
2013-Feb-15 22:10N 37°49' E 024°27'812.7
2013-Feb-15 21:33N 37°44' E 024°19'1512.7
2013-Feb-15 20:21N 37°32' E 024°07'1012.2
2013-Feb-15 19:33N 37°24' E 024°01'5410.8
2013-Feb-15 14:32N 36°38' E 023°26'  
2013-Feb-13 04:33N 37°56' E 009°56'1212.0
2013-Feb-13 03:33N 38°01' E 009°42'1212.2
2013-Feb-13 02:34N 38°05' E 009°28'36011.6
2013-Feb-11 19:28N 40°24' E 002°18'9 2.3
2013-Feb-11 15:31N 40°33' E 002°13'5 2.4
2013-Feb-11 13:16N 40°37' E 002°10'2 2.5
2013-Feb-11 12:28N 40°39' E 002°08'2 2.5
2013-Feb-11 11:35N 40°41' E 002°06'8 2.5
2013-Feb-11 08:18N 40°47' E 002°00'2 2.3
2013-Feb-11 07:21N 40°49' E 001°58'4 2.3
2013-Feb-11 05:26N 40°52' E 001°53'2 1.8
2013-Feb-11 04:15N 40°53' E 001°51'1 1.2
2013-Feb-11 03:18N 40°54' E 001°50'1 1.2
2013-Feb-11 02:34N 40°55' E 001°50'1 1.2
2013-Feb-11 01:21N 40°55' E 001°48'3 1.7
2013-Feb-10 23:31N 40°56' E 001°44'2 1.5
2013-Feb-10 22:29N 40°57' E 001°42'  
2013-Feb-08 17:30N 40°43' E 001°57'1513.8
2013-Feb-08 16:26N 40°35' E 002°14'1213.4
2013-Feb-08 15:33N 40°29' E 002°27'2813.4
2013-Feb-08 13:27N 40°14' E 002°58'2512.6
2013-Feb-08 11:29N 40°01' E 003°26'1312.7
2013-Feb-08 10:27N 39°51' E 003°37'4112.4
2013-Feb-08 07:08N 39°20' E 004°12'2011.8
2013-Feb-08 05:25N 39°04' E 004°28'  

Dump ship's entire track history

sailing weather and tide predictions

Maersk Cameron — MRTN8 — position and weather